71CL weather

Gunnersfield Ranch Airport
Delevan, California, United States

Public forecast

Using degrees Fahrenheit for public forecast. Weather courtesy of forecast.io.

Closest aviation weather report (METAR) to Gunnersfield Ranch Airport

Closest report is Oroville Municipal Airport, 23.3 nm (43.2 km) ENE. Retrieved 2019/10/17 15:53 UTC (33 minutes ago):

KOVE 171553Z AUTO 32006KT 10SM BKN060 15/08 A2994 RMK AO2 SLP140 T01500083

Closest aviation forecast (TAF) to Gunnersfield Ranch Airport

Closest forecast is Beale Air Force Base, 33.2 nm (61.5 km) ESE. Retrieved 2019/10/17 11:06 UTC (5 hours ago):

TAF KBAB 171102Z 1711/1817 12009KT 9999 BKN040 QNH2980INS TEMPO 1711/1713 8000 -SHRA BKN020 BECMG 1719/1720 33009KT 9999 FEW100 QNH2989INS BECMG 1804/1805 VRB06KT 9999 SKC QNH2994INS BECMG 1815/1816 32009KT 9999 SKC QNH3000INS TX21/1721Z TN14/1711Z